createdAt,value
2019-05-19T17:29:12.803Z,8.20
2019-05-19T17:32:06.131Z,6.90
2019-05-19T17:34:46.773Z,5.60
2019-05-19T17:37:33.338Z,6.83
2019-05-19T17:40:19.789Z,3.90
2019-05-19T17:43:06.570Z,4.20
2019-05-19T17:45:53.822Z,4.03
2019-05-19T17:48:43.238Z,3.97
2019-05-19T17:51:29.495Z,4.50
2019-05-19T17:54:15.447Z,4.20
2019-05-19T17:57:04.882Z,6.13
2019-05-19T17:59:52.209Z,5.90
2019-05-19T18:02:38.425Z,5.90
2019-05-19T18:05:24.489Z,5.73
2019-05-19T18:08:10.488Z,5.67
2019-05-19T18:10:56.514Z,6.60
2019-05-19T18:13:42.989Z,6.00
2019-05-19T18:16:29.284Z,6.37
2019-05-19T18:19:16.369Z,6.37
2019-05-19T18:22:02.416Z,7.93
2019-05-19T18:24:48.743Z,7.63
2019-05-19T18:27:34.873Z,7.97
2019-05-19T18:30:21.125Z,11.27
2019-05-19T18:33:07.479Z,8.80
2019-05-19T18:35:54.389Z,8.83
2019-05-19T18:38:43.494Z,8.80
2019-05-19T18:41:30.145Z,9.33
2019-05-19T18:44:19.529Z,11.37
2019-05-19T18:47:05.973Z,12.53
2019-05-19T18:49:52.376Z,9.97
2019-05-19T18:52:38.607Z,10.47
2019-05-19T18:55:24.676Z,10.03
2019-05-19T18:58:10.743Z,10.17
2019-05-19T19:00:57.226Z,10.50
2019-05-19T19:03:45.172Z,9.87
2019-05-19T19:06:31.089Z,10.93
2019-05-19T19:09:17.238Z,12.13
2019-05-19T19:12:04.045Z,11.13
2019-05-19T19:14:50.235Z,11.03
2019-05-19T19:17:36.572Z,11.13
2019-05-19T19:20:22.835Z,11.97
2019-05-19T19:23:08.832Z,11.80
2019-05-19T19:25:54.943Z,12.47
2019-05-19T19:28:41.023Z,14.83
2019-05-19T19:31:27.622Z,15.70
2019-05-19T19:34:13.723Z,15.57
2019-05-19T19:37:00.142Z,17.60
2019-05-19T19:39:59.726Z,16.17
2019-05-19T19:42:45.805Z,17.30
2019-05-19T19:45:35.273Z,17.60
2019-05-19T19:48:24.688Z,18.53
2019-05-19T19:51:10.634Z,17.77
2019-05-19T19:54:02.633Z,20.00
2019-05-19T19:56:48.697Z,18.83
2019-05-19T19:59:34.816Z,19.83
2019-05-19T20:02:21.862Z,19.83
2019-05-19T20:05:07.904Z,22.63
2019-05-19T20:07:54.425Z,21.83
2019-05-19T20:10:40.500Z,23.37
2019-05-19T20:13:26.506Z,25.27
2019-05-19T20:16:13.781Z,25.13
2019-05-19T20:19:00.317Z,26.17
2019-05-19T20:21:54.548Z,25.47
2019-05-19T20:24:41.216Z,26.63
2019-05-19T20:27:28.033Z,27.83
2019-05-19T20:30:14.300Z,30.77
2019-05-19T20:33:00.593Z,28.80
2019-05-19T20:35:46.870Z,29.10
2019-05-19T20:38:33.343Z,28.73
2019-05-19T20:41:19.390Z,31.37
2019-05-19T20:44:06.576Z,32.10
2019-05-19T20:46:53.374Z,39.33
2019-05-19T20:49:39.643Z,32.20
2019-05-19T20:52:25.977Z,30.33
2019-05-19T20:55:29.686Z,33.33
2019-05-19T20:58:16.075Z,31.67
2019-05-19T21:01:02.397Z,30.43
2019-05-19T21:03:48.369Z,30.03
2019-05-19T21:06:34.526Z,29.47
2019-05-19T21:09:20.937Z,30.37
2019-05-19T21:12:06.899Z,31.90
2019-05-19T21:14:52.931Z,30.57
2019-05-19T21:17:38.875Z,32.30
2019-05-19T21:20:25.174Z,30.07
2019-05-19T21:23:11.476Z,30.17
2019-05-19T21:25:57.968Z,29.57
2019-05-19T21:28:44.373Z,30.57
2019-05-19T21:31:30.682Z,33.23
2019-05-19T21:34:17.656Z,32.23
2019-05-19T21:37:04.001Z,32.80
2019-05-19T21:39:53.032Z,31.67
2019-05-19T21:42:39.135Z,29.33
2019-05-19T21:45:25.292Z,31.00
2019-05-19T21:48:11.592Z,33.70
2019-05-19T21:50:57.652Z,33.93
2019-05-19T21:53:44.396Z,34.73
2019-05-19T21:56:32.795Z,34.47
2019-05-19T21:59:20.814Z,34.50
2019-05-19T22:02:09.214Z,35.67
2019-05-19T22:04:56.182Z,37.50
2019-05-19T22:08:13.142Z,32.13
2019-05-19T22:10:59.343Z,32.00
2019-05-19T22:13:45.358Z,30.87
2019-05-19T22:16:32.302Z,30.20
2019-05-19T22:19:20.551Z,30.17
2019-05-19T22:22:06.639Z,30.93
2019-05-19T22:24:52.659Z,32.00
2019-05-19T22:27:38.572Z,31.03
2019-05-19T22:30:24.703Z,32.27
2019-05-19T22:33:10.794Z,32.70
2019-05-19T22:35:59.824Z,34.30
2019-05-19T22:38:45.748Z,33.27
2019-05-19T22:41:31.912Z,34.33
2019-05-19T22:44:20.250Z,30.40
2019-05-19T22:47:05.764Z,30.83
2019-05-19T22:49:51.835Z,30.90
2019-05-19T22:52:38.673Z,28.70
2019-05-19T22:55:24.760Z,29.17
2019-05-19T22:58:10.861Z,33.90
2019-05-19T23:00:59.718Z,26.03
2019-05-19T23:03:45.763Z,25.10
2019-05-19T23:06:37.234Z,25.00
2019-05-19T23:09:23.746Z,25.13
2019-05-19T23:12:10.742Z,26.17
2019-05-19T23:14:56.842Z,25.17
2019-05-19T23:17:51.250Z,24.97
2019-05-19T23:20:37.624Z,26.83
2019-05-19T23:23:23.947Z,26.93
2019-05-19T23:26:09.933Z,27.87
2019-05-19T23:28:56.200Z,26.73
2019-05-19T23:31:42.355Z,24.97
2019-05-19T23:34:28.778Z,25.93
2019-05-19T23:37:15.197Z,27.17
2019-05-19T23:40:01.116Z,24.83
2019-05-19T23:42:47.189Z,26.47
2019-05-19T23:45:34.393Z,25.07
2019-05-19T23:48:20.301Z,25.80
2019-05-19T23:51:06.590Z,26.63
2019-05-19T23:53:52.878Z,26.17
2019-05-19T23:56:39.153Z,26.60
2019-05-19T23:59:25.495Z,29.57
